sensor_id;sensor_type;location;lat;lon;timestamp;P1;durP1;ratioP1;P2;durP2;ratioP2
75427;SDS011;64008;55.612;37.698;2023-06-14T00:00:38;10.15;;;3.60;;
75427;SDS011;64008;55.612;37.698;2023-06-14T00:03:07;11.63;;;3.50;;
75427;SDS011;64008;55.612;37.698;2023-06-14T00:05:37;10.32;;;3.40;;
75427;SDS011;64008;55.612;37.698;2023-06-14T00:08:08;9.85;;;3.58;;
75427;SDS011;64008;55.612;37.698;2023-06-14T00:10:37;10.77;;;3.67;;
75427;SDS011;64008;55.612;37.698;2023-06-14T00:13:06;7.25;;;3.67;;
75427;SDS011;64008;55.612;37.698;2023-06-14T00:15:32;9.82;;;3.72;;
75427;SDS011;64008;55.612;37.698;2023-06-14T00:17:58;11.05;;;3.92;;
75427;SDS011;64008;55.612;37.698;2023-06-14T00:20:27;10.93;;;3.47;;
75427;SDS011;64008;55.612;37.698;2023-06-14T00:22:53;11.70;;;4.30;;
75427;SDS011;64008;55.612;37.698;2023-06-14T00:25:20;11.27;;;3.38;;
75427;SDS011;64008;55.612;37.698;2023-06-14T00:27:47;9.48;;;3.97;;
75427;SDS011;64008;55.612;37.698;2023-06-14T00:30:13;10.13;;;3.58;;
75427;SDS011;64008;55.612;37.698;2023-06-14T00:32:39;11.32;;;4.18;;
75427;SDS011;64008;55.612;37.698;2023-06-14T00:35:04;10.32;;;3.60;;
75427;SDS011;64008;55.612;37.698;2023-06-14T00:37:30;8.77;;;3.60;;
75427;SDS011;64008;55.612;37.698;2023-06-14T00:39:55;10.35;;;3.63;;
75427;SDS011;64008;55.612;37.698;2023-06-14T00:42:24;12.50;;;4.50;;
75427;SDS011;64008;55.612;37.698;2023-06-14T00:44:50;9.10;;;3.80;;
75427;SDS011;64008;55.612;37.698;2023-06-14T00:47:16;11.38;;;3.65;;
75427;SDS011;64008;55.612;37.698;2023-06-14T00:49:41;10.05;;;3.28;;
75427;SDS011;64008;55.612;37.698;2023-06-14T00:52:07;12.23;;;4.35;;
75427;SDS011;64008;55.612;37.698;2023-06-14T00:54:37;9.48;;;3.35;;
75427;SDS011;64008;55.612;37.698;2023-06-14T00:57:02;9.38;;;3.70;;
75427;SDS011;64008;55.612;37.698;2023-06-14T00:59:28;10.93;;;3.75;;
75427;SDS011;64008;55.612;37.698;2023-06-14T01:01:54;8.50;;;3.80;;
75427;SDS011;64008;55.612;37.698;2023-06-14T01:04:19;9.07;;;3.80;;
75427;SDS011;64008;55.612;37.698;2023-06-14T01:06:48;9.20;;;3.78;;
75427;SDS011;64008;55.612;37.698;2023-06-14T01:09:27;10.07;;;4.03;;
75427;SDS011;64008;55.612;37.698;2023-06-14T01:14:49;11.02;;;4.40;;
75427;SDS011;64008;55.612;37.698;2023-06-14T01:17:16;11.30;;;4.38;;
75427;SDS011;64008;55.612;37.698;2023-06-14T01:19:42;9.88;;;5.00;;
75427;SDS011;64008;55.612;37.698;2023-06-14T01:22:09;7.63;;;4.35;;
75427;SDS011;64008;55.612;37.698;2023-06-14T01:24:35;9.45;;;3.85;;
75427;SDS011;64008;55.612;37.698;2023-06-14T01:27:02;9.20;;;3.65;;
75427;SDS011;64008;55.612;37.698;2023-06-14T01:29:28;14.68;;;4.35;;
75427;SDS011;64008;55.612;37.698;2023-06-14T01:31:58;9.20;;;4.20;;
75427;SDS011;64008;55.612;37.698;2023-06-14T01:34:25;12.15;;;4.90;;
75427;SDS011;64008;55.612;37.698;2023-06-14T01:36:51;11.07;;;3.60;;
75427;SDS011;64008;55.612;37.698;2023-06-14T01:39:19;11.20;;;4.22;;
75427;SDS011;64008;55.612;37.698;2023-06-14T01:41:46;10.35;;;4.85;;
75427;SDS011;64008;55.612;37.698;2023-06-14T01:44:13;10.35;;;4.65;;
75427;SDS011;64008;55.612;37.698;2023-06-14T01:46:40;13.13;;;4.03;;
75427;SDS011;64008;55.612;37.698;2023-06-14T01:49:07;10.35;;;3.88;;
75427;SDS011;64008;55.612;37.698;2023-06-14T01:51:33;7.82;;;3.70;;
75427;SDS011;64008;55.612;37.698;2023-06-14T01:53:58;11.68;;;5.05;;
75427;SDS011;64008;55.612;37.698;2023-06-14T01:56:25;12.75;;;4.30;;
75427;SDS011;64008;55.612;37.698;2023-06-14T01:58:51;11.70;;;4.88;;
75427;SDS011;64008;55.612;37.698;2023-06-14T02:01:17;11.15;;;4.35;;
75427;SDS011;64008;55.612;37.698;2023-06-14T02:03:43;11.23;;;4.72;;
75427;SDS011;64008;55.612;37.698;2023-06-14T02:06:10;14.82;;;4.25;;
75427;SDS011;64008;55.612;37.698;2023-06-14T02:08:35;12.27;;;4.90;;
75427;SDS011;64008;55.612;37.698;2023-06-14T02:11:01;13.63;;;4.55;;
75427;SDS011;64008;55.612;37.698;2023-06-14T02:13:26;11.55;;;4.88;;
75427;SDS011;64008;55.612;37.698;2023-06-14T02:15:52;10.73;;;4.80;;
75427;SDS011;64008;55.612;37.698;2023-06-14T02:18:19;13.45;;;4.47;;
75427;SDS011;64008;55.612;37.698;2023-06-14T02:20:46;11.40;;;4.57;;
75427;SDS011;64008;55.612;37.698;2023-06-14T02:23:12;12.85;;;4.97;;
75427;SDS011;64008;55.612;37.698;2023-06-14T02:25:38;13.40;;;4.95;;
75427;SDS011;64008;55.612;37.698;2023-06-14T02:28:05;12.90;;;5.32;;
75427;SDS011;64008;55.612;37.698;2023-06-14T02:30:31;14.00;;;4.88;;
75427;SDS011;64008;55.612;37.698;2023-06-14T02:32:56;13.48;;;5.20;;
75427;SDS011;64008;55.612;37.698;2023-06-14T02:35:22;11.30;;;4.93;;
75427;SDS011;64008;55.612;37.698;2023-06-14T02:37:51;14.18;;;5.22;;
75427;SDS011;64008;55.612;37.698;2023-06-14T02:40:17;10.70;;;4.90;;
75427;SDS011;64008;55.612;37.698;2023-06-14T02:42:43;13.77;;;5.85;;
75427;SDS011;64008;55.612;37.698;2023-06-14T02:45:09;14.63;;;5.43;;
75427;SDS011;64008;55.612;37.698;2023-06-14T02:47:34;12.18;;;5.07;;
75427;SDS011;64008;55.612;37.698;2023-06-14T02:50:00;14.52;;;5.03;;
75427;SDS011;64008;55.612;37.698;2023-06-14T02:52:26;12.70;;;5.00;;
75427;SDS011;64008;55.612;37.698;2023-06-14T02:54:51;18.77;;;5.95;;
75427;SDS011;64008;55.612;37.698;2023-06-14T02:57:17;13.20;;;5.80;;
75427;SDS011;64008;55.612;37.698;2023-06-14T02:59:42;15.18;;;5.80;;
75427;SDS011;64008;55.612;37.698;2023-06-14T03:02:08;12.95;;;5.45;;
75427;SDS011;64008;55.612;37.698;2023-06-14T03:04:33;18.55;;;5.65;;
75427;SDS011;64008;55.612;37.698;2023-06-14T03:07:02;19.88;;;6.25;;
75427;SDS011;64008;55.612;37.698;2023-06-14T03:09:34;16.13;;;5.97;;
75427;SDS011;64008;55.612;37.698;2023-06-14T03:12:01;18.80;;;6.57;;
75427;SDS011;64008;55.612;37.698;2023-06-14T03:16:54;13.82;;;5.55;;
75427;SDS011;64008;55.612;37.698;2023-06-14T03:19:21;16.73;;;6.13;;
75427;SDS011;64008;55.612;37.698;2023-06-14T03:21:47;12.15;;;5.32;;
75427;SDS011;64008;55.612;37.698;2023-06-14T03:24:14;14.40;;;5.82;;
75427;SDS011;64008;55.612;37.698;2023-06-14T03:26:41;14.68;;;6.25;;
75427;SDS011;64008;55.612;37.698;2023-06-14T03:29:07;15.15;;;6.57;;
75427;SDS011;64008;55.612;37.698;2023-06-14T03:31:33;15.55;;;6.32;;
75427;SDS011;64008;55.612;37.698;2023-06-14T03:34:00;15.55;;;6.05;;
75427;SDS011;64008;55.612;37.698;2023-06-14T03:36:28;14.70;;;6.07;;
75427;SDS011;64008;55.612;37.698;2023-06-14T03:38:54;15.32;;;6.18;;
75427;SDS011;64008;55.612;37.698;2023-06-14T03:41:20;18.88;;;6.38;;
75427;SDS011;64008;55.612;37.698;2023-06-14T03:43:46;17.05;;;8.52;;
75427;SDS011;64008;55.612;37.698;2023-06-14T03:46:11;14.82;;;5.43;;
75427;SDS011;64008;55.612;37.698;2023-06-14T03:48:37;15.60;;;7.15;;
75427;SDS011;64008;55.612;37.698;2023-06-14T03:51:03;19.83;;;10.02;;
75427;SDS011;64008;55.612;37.698;2023-06-14T03:53:29;19.45;;;9.20;;
75427;SDS011;64008;55.612;37.698;2023-06-14T03:55:55;17.45;;;7.38;;
75427;SDS011;64008;55.612;37.698;2023-06-14T03:58:22;16.08;;;7.90;;
75427;SDS011;64008;55.612;37.698;2023-06-14T04:00:47;28.42;;;15.20;;
75427;SDS011;64008;55.612;37.698;2023-06-14T04:03:13;37.15;;;18.92;;
75427;SDS011;64008;55.612;37.698;2023-06-14T04:05:40;18.20;;;10.68;;
75427;SDS011;64008;55.612;37.698;2023-06-14T04:08:07;20.70;;;11.00;;
75427;SDS011;64008;55.612;37.698;2023-06-14T04:10:34;24.77;;;12.00;;
75427;SDS011;64008;55.612;37.698;2023-06-14T04:12:59;24.30;;;12.80;;
75427;SDS011;64008;55.612;37.698;2023-06-14T04:15:25;19.58;;;10.40;;
75427;SDS011;64008;55.612;37.698;2023-06-14T04:17:53;17.70;;;6.43;;
75427;SDS011;64008;55.612;37.698;2023-06-14T04:20:22;13.80;;;5.47;;
75427;SDS011;64008;55.612;37.698;2023-06-14T04:22:49;13.43;;;5.28;;
75427;SDS011;64008;55.612;37.698;2023-06-14T04:25:15;18.88;;;9.55;;
75427;SDS011;64008;55.612;37.698;2023-06-14T04:27:41;18.15;;;9.07;;
75427;SDS011;64008;55.612;37.698;2023-06-14T04:30:07;29.38;;;15.50;;
75427;SDS011;64008;55.612;37.698;2023-06-14T04:32:33;29.77;;;15.88;;
75427;SDS011;64008;55.612;37.698;2023-06-14T04:35:03;11.30;;;5.32;;
75427;SDS011;64008;55.612;37.698;2023-06-14T04:37:28;37.38;;;17.27;;
75427;SDS011;64008;55.612;37.698;2023-06-14T04:39:55;15.48;;;5.78;;
75427;SDS011;64008;55.612;37.698;2023-06-14T04:42:21;24.88;;;11.73;;
75427;SDS011;64008;55.612;37.698;2023-06-14T04:44:50;18.67;;;10.13;;
75427;SDS011;64008;55.612;37.698;2023-06-14T04:47:16;25.67;;;13.07;;
75427;SDS011;64008;55.612;37.698;2023-06-14T04:49:42;11.93;;;6.30;;
75427;SDS011;64008;55.612;37.698;2023-06-14T04:52:08;13.82;;;5.82;;
75427;SDS011;64008;55.612;37.698;2023-06-14T04:54:35;15.10;;;6.38;;
75427;SDS011;64008;55.612;37.698;2023-06-14T04:57:03;13.88;;;6.53;;
75427;SDS011;64008;55.612;37.698;2023-06-14T04:59:30;14.95;;;6.35;;
75427;SDS011;64008;55.612;37.698;2023-06-14T05:01:58;12.93;;;5.95;;
75427;SDS011;64008;55.612;37.698;2023-06-14T05:04:25;13.13;;;6.28;;
75427;SDS011;64008;55.612;37.698;2023-06-14T05:06:51;12.18;;;4.72;;
75427;SDS011;64008;55.612;37.698;2023-06-14T05:09:19;13.32;;;6.00;;
75427;SDS011;64008;55.612;37.698;2023-06-14T05:11:46;12.32;;;5.68;;
75427;SDS011;64008;55.612;37.698;2023-06-14T05:14:12;12.95;;;5.68;;
75427;SDS011;64008;55.612;37.698;2023-06-14T05:16:38;15.35;;;6.10;;
75427;SDS011;64008;55.612;37.698;2023-06-14T05:19:04;13.27;;;4.75;;
75427;SDS011;64008;55.612;37.698;2023-06-14T05:21:30;14.82;;;6.05;;
75427;SDS011;64008;55.612;37.698;2023-06-14T05:23:58;10.75;;;4.07;;
75427;SDS011;64008;55.612;37.698;2023-06-14T05:26:24;13.40;;;4.07;;
75427;SDS011;64008;55.612;37.698;2023-06-14T05:28:53;9.73;;;4.15;;
75427;SDS011;64008;55.612;37.698;2023-06-14T05:31:22;9.93;;;4.70;;
75427;SDS011;64008;55.612;37.698;2023-06-14T05:33:49;9.88;;;4.82;;
75427;SDS011;64008;55.612;37.698;2023-06-14T05:36:15;9.43;;;4.28;;
75427;SDS011;64008;55.612;37.698;2023-06-14T05:38:41;9.32;;;4.70;;
75427;SDS011;64008;55.612;37.698;2023-06-14T05:41:06;7.28;;;3.92;;
75427;SDS011;64008;55.612;37.698;2023-06-14T05:43:32;10.43;;;4.18;;
75427;SDS011;64008;55.612;37.698;2023-06-14T05:45:57;9.45;;;3.67;;
75427;SDS011;64008;55.612;37.698;2023-06-14T05:48:23;12.00;;;4.70;;
75427;SDS011;64008;55.612;37.698;2023-06-14T05:50:48;9.63;;;3.55;;
75427;SDS011;64008;55.612;37.698;2023-06-14T05:53:14;7.45;;;3.40;;
75427;SDS011;64008;55.612;37.698;2023-06-14T05:55:39;8.63;;;3.45;;
75427;SDS011;64008;55.612;37.698;2023-06-14T05:58:05;9.13;;;3.22;;
75427;SDS011;64008;55.612;37.698;2023-06-14T06:00:31;11.73;;;3.22;;
75427;SDS011;64008;55.612;37.698;2023-06-14T06:02:56;6.13;;;2.65;;
75427;SDS011;64008;55.612;37.698;2023-06-14T06:05:22;5.93;;;2.47;;
75427;SDS011;64008;55.612;37.698;2023-06-14T06:07:48;9.05;;;2.38;;
75427;SDS011;64008;55.612;37.698;2023-06-14T06:10:14;12.70;;;2.72;;
75427;SDS011;64008;55.612;37.698;2023-06-14T06:12:41;7.03;;;2.58;;
75427;SDS011;64008;55.612;37.698;2023-06-14T06:15:07;9.10;;;3.17;;
75427;SDS011;64008;55.612;37.698;2023-06-14T06:17:37;9.35;;;2.75;;
75427;SDS011;64008;55.612;37.698;2023-06-14T06:20:03;7.47;;;2.40;;
75427;SDS011;64008;55.612;37.698;2023-06-14T06:22:30;6.60;;;1.95;;
75427;SDS011;64008;55.612;37.698;2023-06-14T06:24:56;5.15;;;2.20;;
75427;SDS011;64008;55.612;37.698;2023-06-14T06:27:22;6.00;;;2.25;;
75427;SDS011;64008;55.612;37.698;2023-06-14T06:29:47;7.13;;;2.22;;
75427;SDS011;64008;55.612;37.698;2023-06-14T06:32:13;4.65;;;1.95;;
75427;SDS011;64008;55.612;37.698;2023-06-14T06:34:41;7.18;;;2.22;;
75427;SDS011;64008;55.612;37.698;2023-06-14T06:37:07;4.75;;;1.90;;
75427;SDS011;64008;55.612;37.698;2023-06-14T06:39:32;11.73;;;2.30;;
75427;SDS011;64008;55.612;37.698;2023-06-14T06:41:58;7.60;;;2.65;;
75427;SDS011;64008;55.612;37.698;2023-06-14T06:44:23;4.93;;;2.28;;
75427;SDS011;64008;55.612;37.698;2023-06-14T06:46:49;5.65;;;1.88;;
75427;SDS011;64008;55.612;37.698;2023-06-14T06:49:14;7.10;;;2.08;;
75427;SDS011;64008;55.612;37.698;2023-06-14T06:51:43;5.35;;;2.25;;
75427;SDS011;64008;55.612;37.698;2023-06-14T06:54:23;5.97;;;2.83;;
75427;SDS011;64008;55.612;37.698;2023-06-14T06:56:49;4.90;;;1.92;;
75427;SDS011;64008;55.612;37.698;2023-06-14T06:59:14;8.38;;;2.30;;
75427;SDS011;64008;55.612;37.698;2023-06-14T07:01:41;5.72;;;2.00;;
75427;SDS011;64008;55.612;37.698;2023-06-14T07:04:07;5.05;;;2.30;;
75427;SDS011;64008;55.612;37.698;2023-06-14T07:06:33;5.20;;;1.90;;
75427;SDS011;64008;55.612;37.698;2023-06-14T07:08:58;4.88;;;2.00;;
75427;SDS011;64008;55.612;37.698;2023-06-14T07:11:26;6.43;;;2.08;;
75427;SDS011;64008;55.612;37.698;2023-06-14T07:13:52;6.43;;;2.70;;
75427;SDS011;64008;55.612;37.698;2023-06-14T07:16:18;6.93;;;2.10;;
75427;SDS011;64008;55.612;37.698;2023-06-14T07:18:43;5.40;;;1.90;;
75427;SDS011;64008;55.612;37.698;2023-06-14T07:21:09;7.78;;;1.95;;
75427;SDS011;64008;55.612;37.698;2023-06-14T07:23:35;6.07;;;1.98;;
75427;SDS011;64008;55.612;37.698;2023-06-14T07:26:01;4.75;;;1.90;;
75427;SDS011;64008;55.612;37.698;2023-06-14T07:28:26;5.70;;;2.00;;
75427;SDS011;64008;55.612;37.698;2023-06-14T07:30:52;7.60;;;2.20;;
75427;SDS011;64008;55.612;37.698;2023-06-14T07:33:17;4.70;;;2.10;;
75427;SDS011;64008;55.612;37.698;2023-06-14T07:35:43;6.45;;;2.10;;
75427;SDS011;64008;55.612;37.698;2023-06-14T07:38:08;7.68;;;2.60;;
75427;SDS011;64008;55.612;37.698;2023-06-14T07:40:34;7.13;;;2.30;;
75427;SDS011;64008;55.612;37.698;2023-06-14T07:42:59;6.68;;;2.05;;
75427;SDS011;64008;55.612;37.698;2023-06-14T07:45:26;5.70;;;1.92;;
75427;SDS011;64008;55.612;37.698;2023-06-14T07:47:52;13.10;;;2.65;;
75427;SDS011;64008;55.612;37.698;2023-06-14T07:50:17;9.75;;;2.70;;
75427;SDS011;64008;55.612;37.698;2023-06-14T07:52:43;11.65;;;2.58;;
75427;SDS011;64008;55.612;37.698;2023-06-14T07:55:09;11.55;;;2.75;;
75427;SDS011;64008;55.612;37.698;2023-06-14T07:57:34;17.65;;;2.83;;
75427;SDS011;64008;55.612;37.698;2023-06-14T08:00:00;10.48;;;2.58;;
75427;SDS011;64008;55.612;37.698;2023-06-14T08:02:26;10.90;;;2.42;;
75427;SDS011;64008;55.612;37.698;2023-06-14T08:04:51;7.53;;;2.88;;
75427;SDS011;64008;55.612;37.698;2023-06-14T08:07:17;12.38;;;2.92;;
75427;SDS011;64008;55.612;37.698;2023-06-14T08:09:43;11.75;;;2.20;;
75427;SDS011;64008;55.612;37.698;2023-06-14T08:12:08;5.63;;;2.28;;
75427;SDS011;64008;55.612;37.698;2023-06-14T08:14:37;7.57;;;2.55;;
75427;SDS011;64008;55.612;37.698;2023-06-14T08:17:04;6.53;;;2.33;;
75427;SDS011;64008;55.612;37.698;2023-06-14T08:19:30;4.88;;;2.20;;
75427;SDS011;64008;55.612;37.698;2023-06-14T08:21:56;7.38;;;2.63;;
75427;SDS011;64008;55.612;37.698;2023-06-14T08:24:22;7.97;;;2.83;;
75427;SDS011;64008;55.612;37.698;2023-06-14T08:26:52;6.35;;;2.63;;
75427;SDS011;64008;55.612;37.698;2023-06-14T08:29:18;6.47;;;2.13;;
75427;SDS011;64008;55.612;37.698;2023-06-14T08:31:43;8.00;;;2.33;;
75427;SDS011;64008;55.612;37.698;2023-06-14T08:34:09;7.18;;;2.75;;
75427;SDS011;64008;55.612;37.698;2023-06-14T08:36:35;5.43;;;2.45;;
75427;SDS011;64008;55.612;37.698;2023-06-14T08:39:01;10.40;;;2.65;;
75427;SDS011;64008;55.612;37.698;2023-06-14T08:41:27;5.70;;;2.50;;
75427;SDS011;64008;55.612;37.698;2023-06-14T08:43:54;8.68;;;2.10;;
75427;SDS011;64008;55.612;37.698;2023-06-14T08:46:20;5.05;;;2.33;;
75427;SDS011;64008;55.612;37.698;2023-06-14T08:48:50;7.63;;;2.38;;
75427;SDS011;64008;55.612;37.698;2023-06-14T08:51:20;6.15;;;2.58;;
75427;SDS011;64008;55.612;37.698;2023-06-14T08:53:57;6.45;;;2.35;;
75427;SDS011;64008;55.612;37.698;2023-06-14T08:56:26;6.30;;;2.60;;
75427;SDS011;64008;55.612;37.698;2023-06-14T08:58:53;6.03;;;2.80;;
75427;SDS011;64008;55.612;37.698;2023-06-14T09:03:46;5.90;;;1.98;;
75427;SDS011;64008;55.612;37.698;2023-06-14T09:06:13;4.55;;;2.40;;
75427;SDS011;64008;55.612;37.698;2023-06-14T09:08:41;6.85;;;2.78;;
75427;SDS011;64008;55.612;37.698;2023-06-14T09:11:06;5.35;;;2.30;;
75427;SDS011;64008;55.612;37.698;2023-06-14T09:13:33;8.43;;;2.63;;
75427;SDS011;64008;55.612;37.698;2023-06-14T09:15:59;6.82;;;2.60;;
75427;SDS011;64008;55.612;37.698;2023-06-14T09:18:38;7.68;;;2.38;;
75427;SDS011;64008;55.612;37.698;2023-06-14T09:21:06;6.50;;;2.42;;
75427;SDS011;64008;55.612;37.698;2023-06-14T09:23:39;6.00;;;2.30;;
75427;SDS011;64008;55.612;37.698;2023-06-14T09:26:09;8.30;;;2.80;;
75427;SDS011;64008;55.612;37.698;2023-06-14T09:28:36;5.68;;;2.33;;
75427;SDS011;64008;55.612;37.698;2023-06-14T09:31:01;6.78;;;2.70;;
75427;SDS011;64008;55.612;37.698;2023-06-14T09:33:27;7.60;;;2.33;;
75427;SDS011;64008;55.612;37.698;2023-06-14T09:35:55;5.57;;;2.58;;
75427;SDS011;64008;55.612;37.698;2023-06-14T09:38:21;6.70;;;2.50;;
75427;SDS011;64008;55.612;37.698;2023-06-14T09:40:47;6.53;;;2.35;;
75427;SDS011;64008;55.612;37.698;2023-06-14T09:43:12;5.88;;;2.60;;
75427;SDS011;64008;55.612;37.698;2023-06-14T09:45:38;6.80;;;2.58;;
75427;SDS011;64008;55.612;37.698;2023-06-14T09:48:10;6.95;;;2.67;;
75427;SDS011;64008;55.612;37.698;2023-06-14T09:50:36;6.55;;;2.60;;
75427;SDS011;64008;55.612;37.698;2023-06-14T09:53:10;5.45;;;2.33;;
75427;SDS011;64008;55.612;37.698;2023-06-14T09:55:37;5.85;;;2.17;;
75427;SDS011;64008;55.612;37.698;2023-06-14T09:58:05;6.28;;;2.40;;
75427;SDS011;64008;55.612;37.698;2023-06-14T10:00:32;5.38;;;2.63;;
75427;SDS011;64008;55.612;37.698;2023-06-14T10:03:13;6.28;;;2.25;;
75427;SDS011;64008;55.612;37.698;2023-06-14T10:05:41;7.28;;;2.58;;
75427;SDS011;64008;55.612;37.698;2023-06-14T10:08:11;5.55;;;2.20;;
75427;SDS011;64008;55.612;37.698;2023-06-14T10:10:43;7.05;;;2.60;;
75427;SDS011;64008;55.612;37.698;2023-06-14T10:13:09;9.02;;;3.10;;
75427;SDS011;64008;55.612;37.698;2023-06-14T10:15:48;6.43;;;2.40;;
75427;SDS011;64008;55.612;37.698;2023-06-14T10:18:35;5.78;;;2.38;;
75427;SDS011;64008;55.612;37.698;2023-06-14T10:21:31;5.05;;;2.30;;
75427;SDS011;64008;55.612;37.698;2023-06-14T10:24:04;5.82;;;2.47;;
75427;SDS011;64008;55.612;37.698;2023-06-14T10:26:32;6.43;;;3.05;;
75427;SDS011;64008;55.612;37.698;2023-06-14T10:29:01;5.45;;;2.58;;
75427;SDS011;64008;55.612;37.698;2023-06-14T10:31:48;5.88;;;2.60;;
75427;SDS011;64008;55.612;37.698;2023-06-14T10:34:31;5.75;;;2.53;;
75427;SDS011;64008;55.612;37.698;2023-06-14T10:37:04;6.90;;;2.65;;
75427;SDS011;64008;55.612;37.698;2023-06-14T10:39:32;8.43;;;2.70;;
75427;SDS011;64008;55.612;37.698;2023-06-14T10:42:01;7.43;;;2.65;;
75427;SDS011;64008;55.612;37.698;2023-06-14T10:46:55;8.10;;;2.83;;
75427;SDS011;64008;55.612;37.698;2023-06-14T10:52:11;6.20;;;2.60;;
75427;SDS011;64008;55.612;37.698;2023-06-14T10:57:42;5.85;;;2.20;;
75427;SDS011;64008;55.612;37.698;2023-06-14T11:00:10;6.78;;;3.05;;
75427;SDS011;64008;55.612;37.698;2023-06-14T11:05:25;5.18;;;2.75;;
75427;SDS011;64008;55.612;37.698;2023-06-14T11:07:58;4.88;;;2.30;;
75427;SDS011;64008;55.612;37.698;2023-06-14T11:13:02;6.20;;;2.33;;
75427;SDS011;64008;55.612;37.698;2023-06-14T11:15:31;7.15;;;2.50;;
75427;SDS011;64008;55.612;37.698;2023-06-14T11:18:05;6.40;;;2.40;;
75427;SDS011;64008;55.612;37.698;2023-06-14T11:20:33;8.45;;;2.60;;
75427;SDS011;64008;55.612;37.698;2023-06-14T11:23:00;6.13;;;2.63;;
75427;SDS011;64008;55.612;37.698;2023-06-14T11:27:53;4.78;;;2.00;;
75427;SDS011;64008;55.612;37.698;2023-06-14T11:30:19;6.57;;;2.70;;
75427;SDS011;64008;55.612;37.698;2023-06-14T11:35:15;6.45;;;2.50;;
75427;SDS011;64008;55.612;37.698;2023-06-14T11:37:41;4.63;;;2.22;;
75427;SDS011;64008;55.612;37.698;2023-06-14T11:40:08;6.07;;;2.30;;
75427;SDS011;64008;55.612;37.698;2023-06-14T11:42:35;5.25;;;3.05;;
75427;SDS011;64008;55.612;37.698;2023-06-14T11:45:01;5.25;;;2.30;;
75427;SDS011;64008;55.612;37.698;2023-06-14T11:47:31;7.28;;;2.60;;
75427;SDS011;64008;55.612;37.698;2023-06-14T11:49:59;8.07;;;2.53;;
75427;SDS011;64008;55.612;37.698;2023-06-14T11:52:24;4.68;;;2.42;;
75427;SDS011;64008;55.612;37.698;2023-06-14T11:57:17;4.90;;;2.50;;
75427;SDS011;64008;55.612;37.698;2023-06-14T11:59:43;6.90;;;2.38;;
75427;SDS011;64008;55.612;37.698;2023-06-14T12:02:19;4.70;;;2.03;;
75427;SDS011;64008;55.612;37.698;2023-06-14T12:04:47;4.32;;;2.45;;
75427;SDS011;64008;55.612;37.698;2023-06-14T12:07:14;7.07;;;2.60;;
75427;SDS011;64008;55.612;37.698;2023-06-14T12:09:42;6.22;;;2.30;;
75427;SDS011;64008;55.612;37.698;2023-06-14T12:12:30;6.38;;;2.72;;
75427;SDS011;64008;55.612;37.698;2023-06-14T12:17:21;5.35;;;2.45;;
75427;SDS011;64008;55.612;37.698;2023-06-14T12:19:48;5.53;;;2.28;;
75427;SDS011;64008;55.612;37.698;2023-06-14T12:22:15;4.90;;;2.55;;
75427;SDS011;64008;55.612;37.698;2023-06-14T12:24:44;6.88;;;2.95;;
75427;SDS011;64008;55.612;37.698;2023-06-14T12:27:10;6.40;;;2.70;;
75427;SDS011;64008;55.612;37.698;2023-06-14T12:29:40;6.32;;;2.70;;
75427;SDS011;64008;55.612;37.698;2023-06-14T12:32:10;7.05;;;2.70;;
75427;SDS011;64008;55.612;37.698;2023-06-14T12:34:36;5.47;;;2.70;;
75427;SDS011;64008;55.612;37.698;2023-06-14T12:37:02;5.70;;;2.85;;
75427;SDS011;64008;55.612;37.698;2023-06-14T12:39:29;7.25;;;2.58;;
75427;SDS011;64008;55.612;37.698;2023-06-14T12:41:56;6.13;;;2.80;;
75427;SDS011;64008;55.612;37.698;2023-06-14T12:44:22;8.73;;;2.83;;
75427;SDS011;64008;55.612;37.698;2023-06-14T12:46:48;7.38;;;2.85;;
75427;SDS011;64008;55.612;37.698;2023-06-14T12:49:16;6.53;;;2.65;;
75427;SDS011;64008;55.612;37.698;2023-06-14T12:54:07;5.10;;;2.58;;
75427;SDS011;64008;55.612;37.698;2023-06-14T12:56:33;5.35;;;2.50;;
75427;SDS011;64008;55.612;37.698;2023-06-14T12:58:58;6.78;;;2.50;;
75427;SDS011;64008;55.612;37.698;2023-06-14T13:03:49;5.45;;;2.88;;
75427;SDS011;64008;55.612;37.698;2023-06-14T13:06:16;6.22;;;2.60;;
75427;SDS011;64008;55.612;37.698;2023-06-14T13:11:08;6.00;;;2.70;;
75427;SDS011;64008;55.612;37.698;2023-06-14T13:15:59;6.15;;;2.83;;
75427;SDS011;64008;55.612;37.698;2023-06-14T13:20:50;4.78;;;1.95;;
75427;SDS011;64008;55.612;37.698;2023-06-14T13:25:41;6.10;;;2.35;;
75427;SDS011;64008;55.612;37.698;2023-06-14T13:30:33;5.85;;;2.33;;
75427;SDS011;64008;55.612;37.698;2023-06-14T13:35:24;7.45;;;2.58;;
75427;SDS011;64008;55.612;37.698;2023-06-14T13:37:50;6.82;;;2.33;;
75427;SDS011;64008;55.612;37.698;2023-06-14T13:42:42;4.70;;;2.35;;
75427;SDS011;64008;55.612;37.698;2023-06-14T13:47:33;5.78;;;2.67;;
75427;SDS011;64008;55.612;37.698;2023-06-14T13:52:25;5.10;;;2.28;;
75427;SDS011;64008;55.612;37.698;2023-06-14T13:54:51;4.68;;;2.45;;
75427;SDS011;64008;55.612;37.698;2023-06-14T13:57:16;5.20;;;2.60;;
75427;SDS011;64008;55.612;37.698;2023-06-14T14:02:11;4.38;;;2.15;;
75427;SDS011;64008;55.612;37.698;2023-06-14T14:04:38;5.65;;;2.88;;
75427;SDS011;64008;55.612;37.698;2023-06-14T14:07:04;5.65;;;2.70;;
75427;SDS011;64008;55.612;37.698;2023-06-14T14:09:31;5.10;;;2.33;;
75427;SDS011;64008;55.612;37.698;2023-06-14T14:11:57;6.97;;;2.72;;
75427;SDS011;64008;55.612;37.698;2023-06-14T14:14:24;5.13;;;2.53;;
75427;SDS011;64008;55.612;37.698;2023-06-14T14:19:19;4.93;;;2.45;;
75427;SDS011;64008;55.612;37.698;2023-06-14T14:21:49;5.70;;;2.60;;
75427;SDS011;64008;55.612;37.698;2023-06-14T14:24:14;4.47;;;2.45;;
75427;SDS011;64008;55.612;37.698;2023-06-14T14:26:41;5.38;;;2.28;;
75427;SDS011;64008;55.612;37.698;2023-06-14T14:29:06;5.38;;;2.50;;
75427;SDS011;64008;55.612;37.698;2023-06-14T14:31:32;7.38;;;2.35;;
75427;SDS011;64008;55.612;37.698;2023-06-14T14:36:23;5.60;;;2.30;;
75427;SDS011;64008;55.612;37.698;2023-06-14T14:38:48;8.05;;;2.50;;
75427;SDS011;64008;55.612;37.698;2023-06-14T14:41:16;6.40;;;2.45;;
75427;SDS011;64008;55.612;37.698;2023-06-14T14:43:43;5.93;;;2.22;;
75427;SDS011;64008;55.612;37.698;2023-06-14T14:46:09;4.40;;;2.40;;
75427;SDS011;64008;55.612;37.698;2023-06-14T14:48:34;5.75;;;2.40;;
75427;SDS011;64008;55.612;37.698;2023-06-14T14:51:00;6.35;;;2.40;;
75427;SDS011;64008;55.612;37.698;2023-06-14T14:53:25;7.13;;;2.15;;
75427;SDS011;64008;55.612;37.698;2023-06-14T14:55:51;5.60;;;2.40;;
75427;SDS011;64008;55.612;37.698;2023-06-14T14:58:17;5.38;;;2.28;;
75427;SDS011;64008;55.612;37.698;2023-06-14T15:00:43;6.47;;;2.20;;
75427;SDS011;64008;55.612;37.698;2023-06-14T15:03:09;4.70;;;2.50;;
75427;SDS011;64008;55.612;37.698;2023-06-14T15:05:35;4.45;;;2.10;;
75427;SDS011;64008;55.612;37.698;2023-06-14T15:08:02;5.95;;;2.30;;
75427;SDS011;64008;55.612;37.698;2023-06-14T15:10:28;4.47;;;2.13;;
75427;SDS011;64008;55.612;37.698;2023-06-14T15:15:19;6.07;;;2.50;;
75427;SDS011;64008;55.612;37.698;2023-06-14T15:17:44;5.07;;;2.08;;
75427;SDS011;64008;55.612;37.698;2023-06-14T15:20:10;6.50;;;2.30;;
75427;SDS011;64008;55.612;37.698;2023-06-14T15:22:37;4.60;;;2.10;;
75427;SDS011;64008;55.612;37.698;2023-06-14T15:25:03;6.10;;;2.38;;
75427;SDS011;64008;55.612;37.698;2023-06-14T15:27:29;5.00;;;2.45;;
75427;SDS011;64008;55.612;37.698;2023-06-14T15:29:54;5.25;;;2.58;;
75427;SDS011;64008;55.612;37.698;2023-06-14T15:32:20;6.78;;;2.33;;
75427;SDS011;64008;55.612;37.698;2023-06-14T15:34:45;5.57;;;2.15;;